Time;durP1;ratioP1;P1;durP2;ratioP2;P2;SDS_P1;SDS_P2;PMS_P1;PMS_P2;Temp;Humidity;BMP_temperature;BMP_pressure;BME280_temperature;BME280_humidity;BME280_pressure;Samples;Min_cycle;Max_cycle;Signal;HPM_P1;HPM_P2
2021/05/08 00:02:21;;;;;;;7.70;7.10;;;23.80;70.70;;;;;;3566260;40;20478;-51
2021/05/08 00:04:48;;;;;;;8.10;7.50;;;23.80;70.70;;;;;;3566072;40;20481;-50
2021/05/08 00:07:15;;;;;;;7.20;6.80;;;23.80;71.40;;;;;;3567275;40;20481;-49
2021/05/08 00:09:42;;;;;;;8.30;7.60;;;23.80;70.70;;;;;;3567136;40;20565;-50
2021/05/08 00:12:09;;;;;;;7.67;7.20;;;23.80;70.60;;;;;;3565976;40;20498;-50
2021/05/08 00:14:36;;;;;;;8.07;7.47;;;23.80;70.70;;;;;;3557734;40;21088;-50
2021/05/08 00:17:03;;;;;;;7.87;7.33;;;23.80;70.70;;;;;;3566025;40;20227;-50
2021/05/08 00:19:29;;;;;;;8.57;7.93;;;23.80;70.60;;;;;;3565083;40;20609;-49
2021/05/08 00:21:56;;;;;;;8.30;7.70;;;23.80;70.60;;;;;;3566118;40;20477;-51
2021/05/08 00:24:23;;;;;;;7.90;7.30;;;23.80;70.60;;;;;;3566788;40;20478;-51
2021/05/08 00:26:50;;;;;;;7.67;7.17;;;23.80;70.60;;;;;;3565893;40;20480;-51
2021/05/08 00:29:16;;;;;;;8.17;7.60;;;23.80;70.60;;;;;;3565576;40;20494;-50
2021/05/08 00:31:43;;;;;;;7.47;6.97;;;23.80;70.60;;;;;;3566568;40;20492;-52
2021/05/08 00:34:10;;;;;;;7.70;7.20;;;23.80;70.70;;;;;;3566936;40;20537;-50
2021/05/08 00:36:37;;;;;;;8.43;7.97;;;23.80;70.60;;;;;;3566108;40;21114;-50
2021/05/08 00:39:04;;;;;;;7.43;6.97;;;23.80;70.60;;;;;;3565845;40;20565;-50
2021/05/08 00:41:33;;;;;;;7.70;7.30;;;23.80;70.60;;;;;;3556903;40;20551;-50
2021/05/08 00:44:00;;;;;;;8.17;7.57;;;23.80;70.60;;;;;;3566772;40;20479;-50
2021/05/08 00:46:28;;;;;;;6.97;6.67;;;23.80;70.60;;;;;;3566725;40;20880;-50
2021/05/08 00:48:57;;;;;;;7.77;7.17;;;23.80;70.60;;;;;;3558849;40;20572;-52
2021/05/08 00:51:24;;;;;;;7.77;7.37;;;23.80;70.70;;;;;;3567380;40;20567;-50
2021/05/08 00:53:51;;;;;;;7.70;7.20;;;23.80;70.60;;;;;;3567606;40;20517;-50
2021/05/08 00:56:18;;;;;;;7.10;6.70;;;23.80;70.60;;;;;;3567812;40;20890;-49
2021/05/08 00:58:47;;;;;;;6.70;6.40;;;23.80;70.60;;;;;;3558426;40;20484;-49
2021/05/08 01:01:14;;;;;;;6.83;6.43;;;23.80;70.70;;;;;;3557549;40;20889;-52
2021/05/08 01:03:43;;;;;;;6.97;6.57;;;23.80;70.70;;;;;;3567163;40;20498;-50
2021/05/08 01:06:11;;;;;;;7.13;6.80;;;23.80;70.70;;;;;;3567738;40;20484;-50
2021/05/08 01:08:38;;;;;;;8.03;7.47;;;23.80;70.70;;;;;;3558050;40;20587;-50
2021/05/08 01:11:05;;;;;;;7.30;6.70;;;23.80;70.70;;;;;;3568356;40;20521;-50
2021/05/08 01:13:34;;;;;;;7.93;7.07;;;23.80;70.70;;;;;;3557768;40;20500;-52
2021/05/08 01:16:02;;;;;;;7.57;7.07;;;23.80;70.70;;;;;;3557588;40;20473;-50
2021/05/08 01:18:29;;;;;;;7.90;7.40;;;23.80;70.70;;;;;;3556487;40;20497;-51
2021/05/08 01:20:56;;;;;;;7.83;7.40;;;23.80;70.70;;;;;;3556085;40;21155;-50
2021/05/08 01:23:23;;;;;;;6.73;6.53;;;23.80;70.60;;;;;;3557999;40;20489;-50
2021/05/08 01:25:51;;;;;;;8.00;7.47;;;23.80;70.60;;;;;;3555907;40;20601;-51
2021/05/08 01:28:18;;;;;;;7.90;7.50;;;23.80;70.60;;;;;;3556951;40;20471;-50
2021/05/08 01:30:45;;;;;;;7.60;7.20;;;23.80;70.60;;;;;;3557651;40;20474;-50
2021/05/08 01:33:16;;;;;;;7.57;7.10;;;23.80;71.40;;;;;;3556889;40;20486;-49
2021/05/08 01:35:43;;;;;;;8.80;7.47;;;23.80;70.60;;;;;;3557070;40;20489;-49
2021/05/08 01:38:10;;;;;;;7.93;7.43;;;23.80;70.60;;;;;;3556826;40;20472;-49
2021/05/08 01:40:39;;;;;;;7.80;7.30;;;23.80;70.60;;;;;;3556778;40;20586;-50
2021/05/08 01:43:23;;;;;;;7.27;6.80;;;23.80;70.60;;;;;;3556519;40;20473;-49
2021/05/08 01:45:50;;;;;;;7.87;7.43;;;23.80;70.60;;;;;;3555986;40;20499;-50
2021/05/08 01:48:17;;;;;;;7.73;7.23;;;23.80;70.50;;;;;;3548368;40;20615;-50
2021/05/08 01:50:44;;;;;;;7.53;7.03;;;23.80;70.50;;;;;;3556513;40;20486;-50
2021/05/08 01:53:10;;;;;;;7.37;6.90;;;23.80;70.60;;;;;;3554919;40;20523;-49
2021/05/08 01:55:42;;;;;;;7.60;7.17;;;23.80;70.50;;;;;;3556824;40;20497;-50
2021/05/08 01:58:17;;;;;;;8.23;7.67;;;23.80;70.50;;;;;;3557138;40;20482;-49
2021/05/08 02:00:49;;;;;;;7.27;6.57;;;23.80;70.50;;;;;;3557249;40;20478;-49
2021/05/08 02:03:16;;;;;;;7.30;7.00;;;23.80;70.50;;;;;;3556240;40;20489;-50
2021/05/08 02:05:47;;;;;;;7.43;6.93;;;23.80;70.50;;;;;;3557208;40;20557;-49
2021/05/08 02:08:28;;;;;;;7.17;6.77;;;23.80;70.50;;;;;;3556161;40;20924;-51
2021/05/08 02:10:57;;;;;;;7.43;7.13;;;23.80;70.50;;;;;;3555640;40;20498;-50
2021/05/08 02:13:23;;;;;;;7.90;7.50;;;23.90;70.60;;;;;;3566027;40;20481;-49
2021/05/08 02:15:50;;;;;;;7.47;7.07;;;23.80;70.50;;;;;;3557702;40;20489;-49
2021/05/08 02:18:17;;;;;;;6.93;6.53;;;23.80;70.50;;;;;;3566345;40;20478;-49
2021/05/08 02:20:46;;;;;;;7.60;7.10;;;23.80;70.50;;;;;;3556325;40;20571;-50
2021/05/08 02:23:15;;;;;;;6.93;6.63;;;23.90;70.60;;;;;;3566018;40;20481;-50
2021/05/08 02:25:47;;;;;;;7.60;7.20;;;23.90;70.60;;;;;;3556790;40;20503;-50
2021/05/08 02:28:14;;;;;;;7.90;7.40;;;23.80;70.50;;;;;;3565601;40;20476;-50
2021/05/08 02:30:42;;;;;;;7.70;7.30;;;23.80;70.50;;;;;;3566049;40;20493;-49
2021/05/08 02:33:11;;;;;;;7.50;7.10;;;23.80;70.50;;;;;;3557422;40;21147;-50
2021/05/08 02:35:39;;;;;;;7.70;7.10;;;23.80;70.50;;;;;;3557391;40;20570;-49
2021/05/08 02:38:07;;;;;;;7.20;6.90;;;23.90;70.60;;;;;;3566659;40;20847;-49
2021/05/08 02:40:36;;;;;;;6.70;6.40;;;23.90;71.40;;;;;;3557356;40;20473;-50
2021/05/08 02:43:04;;;;;;;7.10;6.80;;;23.80;70.50;;;;;;3549008;40;20578;-49
2021/05/08 02:45:32;;;;;;;7.37;7.07;;;23.90;70.60;;;;;;3557752;40;20552;-49
2021/05/08 02:48:00;;;;;;;7.33;7.03;;;23.90;70.60;;;;;;3557189;40;20497;-49
2021/05/08 02:50:30;;;;;;;7.10;6.70;;;23.90;70.60;;;;;;3567368;40;20490;-51
2021/05/08 02:53:00;;;;;;;7.87;7.10;;;23.90;70.60;;;;;;3558098;40;20489;-49
2021/05/08 02:55:31;;;;;;;7.87;7.47;;;23.90;70.60;;;;;;3566034;40;20486;-50
2021/05/08 02:58:01;;;;;;;7.67;7.27;;;23.90;70.60;;;;;;3557136;40;21009;-50
2021/05/08 03:00:28;;;;;;;7.47;7.00;;;23.90;70.60;;;;;;3565719;40;20492;-50
2021/05/08 03:02:56;;;;;;;7.53;6.97;;;23.90;70.60;;;;;;3566764;40;20492;-50
2021/05/08 03:05:22;;;;;;;7.75;7.35;;;23.90;70.60;;;;;;3566825;40;20488;-50
2021/05/08 03:07:53;;;;;;;7.43;7.03;;;23.90;70.60;;;;;;3566500;40;20223;-50
2021/05/08 03:10:19;;;;;;;7.28;6.93;;;23.90;70.60;;;;;;3567511;40;20475;-50
2021/05/08 03:12:48;;;;;;;7.72;7.30;;;23.90;70.70;;;;;;3555597;40;20268;-50
2021/05/08 03:15:15;;;;;;;8.30;7.70;;;23.90;70.60;;;;;;3556395;40;20229;-49
2021/05/08 03:17:42;;;;;;;7.43;7.13;;;23.90;71.30;;;;;;3555636;40;20536;-50
2021/05/08 03:20:13;;;;;;;6.90;6.60;;;23.90;70.50;;;;;;3555701;40;20495;-49
2021/05/08 03:22:41;;;;;;;8.00;7.50;;;23.90;70.50;;;;;;3556443;40;20884;-49
2021/05/08 03:25:08;;;;;;;7.97;7.57;;;23.90;70.50;;;;;;3556420;40;20749;-51
2021/05/08 03:27:35;;;;;;;7.20;6.90;;;23.90;70.40;;;;;;3555230;40;20486;-50
2021/05/08 03:30:02;;;;;;;7.90;7.50;;;23.90;70.50;;;;;;3556228;40;20494;-50
2021/05/08 03:32:30;;;;;;;7.77;7.40;;;23.90;70.60;;;;;;3555950;40;20491;-49
2021/05/08 03:34:57;;;;;;;8.20;7.80;;;23.90;70.50;;;;;;3555490;40;20823;-49
2021/05/08 03:37:26;;;;;;;7.87;7.53;;;23.90;70.50;;;;;;3556027;40;20483;-49
2021/05/08 03:39:53;;;;;;;8.20;7.80;;;23.90;70.50;;;;;;3556104;40;20866;-50
2021/05/08 03:42:19;;;;;;;8.07;7.63;;;23.90;70.60;;;;;;3555999;40;20483;-49
2021/05/08 03:44:46;;;;;;;7.93;7.43;;;23.90;70.50;;;;;;3555475;40;20572;-50
2021/05/08 03:47:12;;;;;;;8.33;8.00;;;23.90;70.60;;;;;;3555617;40;20584;-49
2021/05/08 03:49:39;;;;;;;8.10;7.70;;;23.90;70.50;;;;;;3555337;40;20479;-51
2021/05/08 03:52:06;;;;;;;8.30;7.80;;;23.90;70.50;;;;;;3555158;40;21034;-49
2021/05/08 03:54:36;;;;;;;7.77;7.37;;;24.00;70.50;;;;;;3554494;40;20493;-50
2021/05/08 03:57:03;;;;;;;7.78;7.38;;;24.00;70.50;;;;;;3554601;40;20489;-51
2021/05/08 03:59:30;;;;;;;8.33;7.83;;;24.00;70.50;;;;;;3554213;40;20243;-49
2021/05/08 04:01:57;;;;;;;7.90;7.50;;;24.00;70.40;;;;;;3555934;40;20503;-54
2021/05/08 04:04:23;;;;;;;7.82;7.53;;;24.00;70.40;;;;;;3555339;40;20880;-50
2021/05/08 04:06:50;;;;;;;8.47;7.97;;;24.00;70.30;;;;;;3555440;40;20235;-50
2021/05/08 04:09:17;;;;;;;8.40;8.00;;;24.10;70.30;;;;;;3555987;40;20493;-50
2021/05/08 04:11:46;;;;;;;7.90;7.50;;;24.10;70.30;;;;;;3554469;40;20593;-50
2021/05/08 04:14:12;;;;;;;8.40;8.00;;;24.10;70.30;;;;;;3555228;40;20479;-51
2021/05/08 04:16:39;;;;;;;7.93;7.53;;;24.20;70.30;;;;;;3555164;40;20495;-50
2021/05/08 04:19:06;;;;;;;8.50;8.00;;;24.20;70.20;;;;;;3555305;40;20486;-50
2021/05/08 04:21:33;;;;;;;8.23;7.83;;;24.20;70.20;;;;;;3555821;40;20474;-54
2021/05/08 04:23:59;;;;;;;8.50;8.10;;;24.20;70.10;;;;;;3555408;40;20486;-50
2021/05/08 04:26:26;;;;;;;8.33;7.93;;;24.20;70.10;;;;;;3554465;40;20678;-50
2021/05/08 04:28:54;;;;;;;8.30;7.90;;;24.20;70.00;;;;;;3554009;40;20570;-52
2021/05/08 04:31:20;;;;;;;8.03;7.63;;;24.30;70.10;;;;;;3555152;40;20247;-49
2021/05/08 04:33:47;;;;;;;8.10;7.70;;;24.30;70.00;;;;;;3554998;40;20498;-50
2021/05/08 04:36:14;;;;;;;8.23;7.87;;;24.30;70.00;;;;;;3553960;40;20491;-50
2021/05/08 04:38:41;;;;;;;7.97;7.57;;;24.30;69.90;;;;;;3555120;40;20492;-49
2021/05/08 04:41:10;;;;;;;7.60;7.30;;;24.40;70.00;;;;;;3554474;40;20468;-49
2021/05/08 04:43:37;;;;;;;7.63;7.33;;;24.40;69.90;;;;;;3555300;40;20487;-50
2021/05/08 04:46:04;;;;;;;8.30;7.80;;;24.40;69.90;;;;;;3554173;40;20466;-50
2021/05/08 04:48:33;;;;;;;7.67;7.37;;;24.40;69.90;;;;;;3554141;40;20502;-52
2021/05/08 04:51:00;;;;;;;8.07;7.78;;;24.40;69.80;;;;;;3554232;40;20842;-50
2021/05/08 04:53:27;;;;;;;7.73;7.43;;;24.50;69.90;;;;;;3553644;40;20236;-50
2021/05/08 04:55:53;;;;;;;8.07;7.77;;;24.50;69.80;;;;;;3554858;40;20493;-50
2021/05/08 04:58:20;;;;;;;8.53;8.13;;;24.50;69.70;;;;;;3553833;40;20783;-51
2021/05/08 05:00:47;;;;;;;8.20;7.80;;;24.60;69.70;;;;;;3553723;40;20573;-51
2021/05/08 05:03:14;;;;;;;8.10;7.80;;;24.60;69.70;;;;;;3553866;40;20513;-50
2021/05/08 05:05:41;;;;;;;7.90;7.50;;;24.60;69.60;;;;;;3551431;40;20480;-50
2021/05/08 05:08:08;;;;;;;8.70;8.30;;;24.60;69.50;;;;;;3554602;40;20621;-52
2021/05/08 05:10:34;;;;;;;7.07;6.87;;;24.60;69.50;;;;;;3554877;40;20474;-50
2021/05/08 05:13:01;;;;;;;7.60;7.30;;;24.70;69.60;;;;;;3560952;40;20574;-49
2021/05/08 05:15:29;;;;;;;8.03;7.63;;;24.70;69.50;;;;;;3554861;40;20485;-49
2021/05/08 05:17:56;;;;;;;7.67;7.27;;;24.70;69.50;;;;;;3563263;40;20481;-49
2021/05/08 05:20:24;;;;;;;7.70;7.40;;;24.70;69.50;;;;;;3563600;40;20593;-50
2021/05/08 05:22:51;;;;;;;8.00;7.70;;;24.70;69.50;;;;;;3563811;40;20494;-50
2021/05/08 05:25:17;;;;;;;7.83;7.53;;;24.70;69.50;;;;;;3562112;40;20483;-50
2021/05/08 05:27:44;;;;;;;7.50;7.20;;;24.70;69.50;;;;;;3563743;40;20542;-50
2021/05/08 05:30:12;;;;;;;7.50;7.20;;;24.70;69.50;;;;;;3564234;40;20509;-50
2021/05/08 05:32:38;;;;;;;7.43;7.13;;;24.60;69.40;;;;;;3562533;40;20488;-50
2021/05/08 05:35:06;;;;;;;7.83;7.43;;;24.60;69.50;;;;;;3562901;40;20867;-49
2021/05/08 05:37:34;;;;;;;7.63;7.32;;;24.60;69.40;;;;;;3564003;40;20644;-50
2021/05/08 05:40:00;;;;;;;8.50;8.10;;;24.60;69.50;;;;;;3554316;40;20236;-49
2021/05/08 05:42:27;;;;;;;7.53;7.23;;;24.60;69.50;;;;;;3563068;40;20220;-49
2021/05/08 05:44:53;;;;;;;7.90;7.47;;;24.70;69.60;;;;;;3563064;40;20890;-50
2021/05/08 05:47:23;;;;;;;7.50;7.20;;;24.70;69.60;;;;;;3564321;40;20540;-50
2021/05/08 05:49:50;;;;;;;7.70;7.40;;;24.70;69.60;;;;;;3564881;40;20691;-52
2021/05/08 05:52:17;;;;;;;7.50;7.20;;;24.70;69.60;;;;;;3563892;40;20728;-50
2021/05/08 05:54:45;;;;;;;8.17;7.77;;;24.70;69.60;;;;;;3562655;40;20687;-51
2021/05/08 05:57:12;;;;;;;7.77;7.37;;;24.70;69.60;;;;;;3563687;40;20498;-50
2021/05/08 05:59:39;;;;;;;8.30;7.90;;;24.70;69.60;;;;;;3564768;40;20497;-50
2021/05/08 06:02:05;;;;;;;7.80;7.50;;;24.70;69.60;;;;;;3555356;40;20477;-50
2021/05/08 06:04:32;;;;;;;7.43;7.13;;;24.70;69.60;;;;;;3554853;40;20469;-51
2021/05/08 06:07:00;;;;;;;7.30;7.00;;;24.70;69.60;;;;;;3564655;40;20478;-53
2021/05/08 06:09:27;;;;;;;7.20;6.90;;;24.70;69.50;;;;;;3565210;40;20488;-51
2021/05/08 06:11:55;;;;;;;7.40;7.03;;;24.70;69.50;;;;;;3565605;40;20479;-50
2021/05/08 06:14:22;;;;;;;7.53;7.23;;;24.70;69.60;;;;;;3564452;40;20259;-51
2021/05/08 06:16:49;;;;;;;7.65;7.25;;;24.70;69.60;;;;;;3564087;40;20494;-50
2021/05/08 06:19:16;;;;;;;8.70;8.30;;;24.70;69.60;;;;;;3563602;40;20220;-50
2021/05/08 06:21:42;;;;;;;7.70;7.33;;;24.70;69.60;;;;;;3564572;40;20495;-52
2021/05/08 06:24:10;;;;;;;8.20;7.80;;;24.70;69.60;;;;;;3565898;40;20546;-50
2021/05/08 06:26:37;;;;;;;7.77;7.37;;;24.70;69.60;;;;;;3556015;40;20481;-51
2021/05/08 06:29:05;;;;;;;8.63;8.23;;;24.70;69.80;;;;;;3564823;40;20494;-55
2021/05/08 06:31:32;;;;;;;10.20;9.37;;;24.70;69.80;;;;;;3565130;40;20480;-54
2021/05/08 06:33:58;;;;;;;11.75;10.95;;;24.70;63.20;;;;;;3564984;40;20605;-50
2021/05/08 06:36:25;;;;;;;10.55;9.82;;;24.40;54.50;;;;;;3563346;40;20516;-53
2021/05/08 06:38:52;;;;;;;11.40;10.50;;;24.10;53.20;;;;;;3563180;40;20512;-50
2021/05/08 06:41:18;;;;;;;11.70;11.00;;;23.80;53.20;;;;;;3563598;40;20547;-51
2021/05/08 06:43:45;;;;;;;12.18;11.40;;;23.50;53.10;;;;;;3563664;40;20490;-50
2021/05/08 06:46:13;;;;;;;11.83;11.03;;;23.30;52.30;;;;;;3563588;40;20232;-49
2021/05/08 06:48:39;;;;;;;12.27;11.07;;;23.10;52.80;;;;;;3563197;40;20503;-49
2021/05/08 06:51:08;;;;;;;10.70;9.90;;;22.90;52.60;;;;;;3563924;40;20511;-53
2021/05/08 06:53:35;;;;;;;11.43;10.70;;;22.90;53.90;;;;;;3562755;40;20784;-51
2021/05/08 06:56:02;;;;;;;15.83;14.63;;;22.80;53.80;;;;;;3563479;40;20499;-49
2021/05/08 06:58:29;;;;;;;11.67;10.97;;;22.90;53.00;;;;;;3555060;40;20788;-50
2021/05/08 07:00:55;;;;;;;13.63;12.32;;;22.80;53.30;;;;;;3562714;40;20667;-52
2021/05/08 07:03:23;;;;;;;10.97;10.20;;;22.80;52.60;;;;;;3562042;40;20240;-52
2021/05/08 07:05:50;;;;;;;10.20;9.50;;;22.80;51.70;;;;;;3554085;40;20496;-50
2021/05/08 07:08:16;;;;;;;10.90;10.30;;;22.80;52.80;;;;;;3561249;40;20474;-49
2021/05/08 07:10:44;;;;;;;9.93;9.33;;;22.90;51.90;;;;;;3561232;40;20487;-51
2021/05/08 07:13:11;;;;;;;10.63;9.90;;;22.90;51.00;;;;;;3552913;40;20886;-50
2021/05/08 07:15:37;;;;;;;11.47;10.40;;;22.90;50.90;;;;;;3562365;40;20531;-50
2021/05/08 07:18:05;;;;;;;8.90;8.50;;;22.90;50.60;;;;;;3561310;40;20588;-53
2021/05/08 07:20:34;;;;;;;9.30;8.70;;;22.90;52.40;;;;;;3560652;40;20483;-51
2021/05/08 07:23:01;;;;;;;8.60;8.20;;;22.90;50.90;;;;;;3562410;40;20504;-50
2021/05/08 07:25:28;;;;;;;9.70;9.20;;;23.00;50.10;;;;;;3553941;40;21005;-52
2021/05/08 07:28:06;;;;;;;8.03;7.67;;;22.90;51.80;;;;;;3562990;40;20482;-51
2021/05/08 07:30:34;;;;;;;8.00;7.70;;;22.90;52.30;;;;;;3547838;40;20492;-49
2021/05/08 07:33:01;;;;;;;8.27;7.78;;;23.00;52.00;;;;;;3563950;40;20522;-50
2021/05/08 07:35:28;;;;;;;8.37;7.87;;;23.00;51.40;;;;;;3562997;40;20738;-49
2021/05/08 07:37:55;;;;;;;8.70;8.00;;;23.10;52.50;;;;;;3561754;40;20480;-50
2021/05/08 07:40:22;;;;;;;8.90;8.30;;;23.10;56.50;;;;;;3562968;40;20585;-50
2021/05/08 07:42:49;;;;;;;8.60;8.10;;;23.20;56.80;;;;;;3562652;40;20901;-49
2021/05/08 07:45:15;;;;;;;8.37;7.97;;;23.30;55.40;;;;;;3563548;40;20260;-50
2021/05/08 07:47:42;;;;;;;7.30;7.00;;;23.30;55.10;;;;;;4647046;23;20509;-50
2021/05/08 07:50:10;;;;;;;8.00;7.60;;;23.40;56.30;;;;;;3550859;40;20496;-49
2021/05/08 07:52:38;;;;;;;8.13;7.73;;;23.40;56.20;;;;;;3551093;40;20498;-50
2021/05/08 07:55:07;;;;;;;7.40;7.10;;;23.50;55.80;;;;;;3550337;40;20561;-50
2021/05/08 07:57:33;;;;;;;7.83;7.33;;;23.50;56.90;;;;;;3549366;40;20842;-49
2021/05/08 08:00:00;;;;;;;8.60;7.80;;;23.50;56.40;;;;;;3550281;40;20738;-49
2021/05/08 08:02:27;;;;;;;7.33;7.03;;;23.60;56.40;;;;;;3549084;40;20562;-50
2021/05/08 08:04:53;;;;;;;7.17;6.87;;;23.60;56.60;;;;;;3551309;40;20575;-49
2021/05/08 08:07:20;;;;;;;6.90;6.70;;;23.60;56.20;;;;;;3552196;40;21067;-49
2021/05/08 08:09:46;;;;;;;6.82;6.53;;;23.60;55.30;;;;;;3552021;40;20481;-49
2021/05/08 08:12:14;;;;;;;6.87;6.57;;;23.60;55.80;;;;;;3549800;40;20469;-49
2021/05/08 08:14:40;;;;;;;7.20;6.90;;;23.60;54.70;;;;;;3549147;40;20489;-49
2021/05/08 08:17:07;;;;;;;7.00;6.70;;;23.60;55.10;;;;;;3550177;40;20493;-50
2021/05/08 08:19:33;;;;;;;7.10;6.40;;;23.60;55.90;;;;;;3549550;40;20970;-50
2021/05/08 08:22:00;;;;;;;6.90;6.50;;;23.60;57.20;;;;;;3549858;40;20227;-49
2021/05/08 08:24:27;;;;;;;7.13;6.83;;;23.60;57.60;;;;;;3550472;40;20581;-50
2021/05/08 08:26:53;;;;;;;7.03;6.63;;;23.70;57.70;;;;;;3549926;40;20494;-50
2021/05/08 08:29:22;;;;;;;7.33;6.97;;;23.70;57.80;;;;;;3550036;40;20787;-49
2021/05/08 08:31:48;;;;;;;7.20;6.70;;;23.80;58.00;;;;;;3548539;40;20579;-49
2021/05/08 08:34:15;;;;;;;6.95;6.65;;;23.80;58.10;;;;;;3549383;40;20791;-49
2021/05/08 08:36:41;;;;;;;7.43;7.10;;;23.90;58.40;;;;;;3550567;40;20507;-50
2021/05/08 08:39:08;;;;;;;7.37;6.97;;;23.90;58.60;;;;;;3549705;40;20375;-49
2021/05/08 08:41:35;;;;;;;6.70;6.10;;;23.90;58.60;;;;;;3549428;40;20519;-50
2021/05/08 08:44:09;;;;;;;7.90;7.30;;;23.90;58.80;;;;;;3549661;40;20706;-49
2021/05/08 08:46:39;;;;;;;7.23;6.90;;;24.00;59.00;;;;;;3549745;40;20880;-50
2021/05/08 08:49:06;;;;;;;7.33;6.83;;;24.00;59.10;;;;;;3548787;40;20722;-50
2021/05/08 08:51:33;;;;;;;7.47;7.07;;;24.00;59.20;;;;;;3547922;40;20495;-50
2021/05/08 08:54:00;;;;;;;7.73;7.33;;;24.00;59.30;;;;;;3549995;40;20480;-50
2021/05/08 08:56:32;;;;;;;7.57;6.83;;;24.10;59.50;;;;;;3549750;40;21064;-49
2021/05/08 08:59:02;;;;;;;8.33;7.60;;;24.10;59.60;;;;;;3550112;40;20737;-49
2021/05/08 09:01:29;;;;;;;7.50;7.07;;;24.10;59.70;;;;;;3548328;40;20514;-50
2021/05/08 09:03:57;;;;;;;7.70;7.13;;;24.10;59.80;;;;;;3550683;40;20925;-49
2021/05/08 09:06:25;;;;;;;8.80;8.10;;;24.10;60.00;;;;;;3550452;40;20850;-50
2021/05/08 09:08:53;;;;;;;10.77;9.87;;;24.10;60.10;;;;;;3552824;40;20567;-49
2021/05/08 09:11:21;;;;;;;14.70;13.30;;;24.10;60.30;;;;;;3551940;40;20547;-50
2021/05/08 09:13:48;;;;;;;17.17;15.37;;;24.10;60.60;;;;;;3541305;40;20494;-50
2021/05/08 09:16:14;;;;;;;23.53;18.73;;;24.10;60.90;;;;;;3551749;40;20498;-50
2021/05/08 09:18:41;;;;;;;33.10;23.03;;;24.10;61.10;;;;;;3552340;40;20503;-50
2021/05/08 09:21:25;;;;;;;25.73;20.53;;;24.10;61.40;;;;;;3549430;40;20596;-50
2021/05/08 09:23:58;;;;;;;29.20;21.87;;;24.10;61.70;;;;;;3549706;40;20504;-50
2021/05/08 09:26:36;;;;;;;24.77;19.60;;;24.10;62.00;;;;;;3550219;40;20496;-52
2021/05/08 09:29:18;;;;;;;27.53;19.17;;;24.10;62.10;;;;;;3547539;40;20486;-50
2021/05/08 09:31:57;;;;;;;21.47;17.93;;;24.10;62.40;;;;;;3551578;40;20501;-50
2021/05/08 09:34:26;;;;;;;19.07;15.67;;;24.10;62.60;;;;;;3552671;40;20712;-50
2021/05/08 09:36:55;;;;;;;19.17;15.55;;;24.00;62.60;;;;;;3549802;40;20492;-50
2021/05/08 09:39:29;;;;;;;16.83;14.67;;;24.00;62.80;;;;;;3549722;40;20238;-50
2021/05/08 09:41:56;;;;;;;15.53;13.90;;;24.00;62.90;;;;;;3550658;40;20487;-50
2021/05/08 09:44:23;;;;;;;14.37;12.87;;;24.10;63.00;;;;;;3549804;40;21042;-51
2021/05/08 09:46:51;;;;;;;13.50;12.30;;;24.10;63.10;;;;;;3541414;40;20939;-50
2021/05/08 09:49:20;;;;;;;13.00;11.70;;;24.00;63.00;;;;;;3551075;40;20889;-50
2021/05/08 09:51:59;;;;;;;12.47;11.47;;;24.00;63.10;;;;;;3550991;40;20489;-51
2021/05/08 09:54:25;;;;;;;11.63;10.50;;;24.10;63.40;;;;;;3552391;40;20491;-49
2021/05/08 09:56:52;;;;;;;10.63;9.67;;;24.00;63.40;;;;;;3553120;40;20495;-50
2021/05/08 09:59:30;;;;;;;10.10;9.40;;;24.00;63.40;;;;;;3550246;40;20470;-50
2021/05/08 10:02:14;;;;;;;10.50;9.63;;;24.00;63.50;;;;;;3538122;40;20855;-50
2021/05/08 10:04:43;;;;;;;9.77;9.03;;;24.00;63.60;;;;;;3549538;40;20480;-50
2021/05/08 10:07:12;;;;;;;9.97;9.17;;;24.00;63.60;;;;;;3550092;40;20501;-50
2021/05/08 10:09:40;;;;;;;9.10;8.50;;;24.00;63.80;;;;;;3549159;40;20478;-50
2021/05/08 10:12:08;;;;;;;9.87;9.07;;;24.00;63.90;;;;;;3549199;40;20486;-50
2021/05/08 10:14:36;;;;;;;8.80;8.10;;;24.00;63.90;;;;;;3549640;40;20518;-51
2021/05/08 10:17:04;;;;;;;9.87;8.77;;;24.00;64.00;;;;;;3549763;40;20479;-51
2021/05/08 10:19:32;;;;;;;8.85;8.25;;;24.00;64.10;;;;;;3548633;40;20487;-50
2021/05/08 10:22:01;;;;;;;9.30;8.40;;;24.00;64.20;;;;;;3549667;40;20229;-51
2021/05/08 10:24:29;;;;;;;8.30;7.87;;;24.00;64.30;;;;;;3550940;40;20718;-51
2021/05/08 10:26:58;;;;;;;8.63;7.97;;;24.00;64.40;;;;;;3551464;40;20482;-52
2021/05/08 10:29:27;;;;;;;8.90;8.20;;;23.90;64.40;;;;;;3551765;40;20472;-51
2021/05/08 10:31:54;;;;;;;8.20;7.60;;;23.90;64.50;;;;;;3551296;40;20751;-52
2021/05/08 10:34:31;;;;;;;13.57;7.47;;;23.90;64.60;;;;;;3550998;40;21151;-53
2021/05/08 10:37:06;;;;;;;7.93;7.47;;;24.00;64.70;;;;;;3550133;40;20878;-53
2021/05/08 10:39:50;;;;;;;7.83;7.43;;;24.00;64.70;;;;;;3551542;40;20490;-50
2021/05/08 10:42:34;;;;;;;7.03;6.53;;;23.90;64.60;;;;;;3552165;40;20801;-51
2021/05/08 10:45:01;;;;;;;7.90;7.40;;;24.00;64.70;;;;;;3551679;40;20482;-50
2021/05/08 10:48:03;;;;;;;7.40;7.03;;;24.00;64.80;;;;;;3550366;40;20483;-51
2021/05/08 10:50:36;;;;;;;8.10;7.60;;;24.00;64.80;;;;;;3550977;40;20494;-52
2021/05/08 10:53:07;;;;;;;8.30;7.80;;;24.00;64.90;;;;;;3543449;40;20286;-51
2021/05/08 10:55:57;;;;;;;8.43;7.93;;;24.00;65.70;;;;;;3541638;40;20488;-53
2021/05/08 10:58:37;;;;;;;7.80;7.40;;;24.00;65.00;;;;;;3549677;40;20233;-51
2021/05/08 11:01:10;;;;;;;7.73;7.37;;;24.00;65.00;;;;;;3543083;40;20497;-51
2021/05/08 11:04:02;;;;;;;8.07;7.50;;;23.90;64.90;;;;;;3541924;40;20976;-50
2021/05/08 11:06:29;;;;;;;7.63;7.23;;;24.00;65.10;;;;;;3542959;40;20229;-50
2021/05/08 11:08:57;;;;;;;10.80;7.83;;;23.90;65.00;;;;;;3543094;40;20479;-50
2021/05/08 11:11:43;;;;;;;7.50;7.10;;;23.90;65.00;;;;;;3543417;40;20484;-50
2021/05/08 11:14:11;;;;;;;7.57;7.03;;;23.90;65.10;;;;;;3548218;40;20503;-51
2021/05/08 11:16:55;;;;;;;7.30;6.90;;;23.90;65.10;;;;;;3552428;40;20489;-51
2021/05/08 11:19:23;;;;;;;7.77;7.27;;;23.90;65.20;;;;;;3550437;40;20475;-50
2021/05/08 11:22:06;;;;;;;7.30;6.90;;;23.90;65.20;;;;;;3553112;40;20480;-51
2021/05/08 11:24:38;;;;;;;7.37;7.07;;;23.90;65.30;;;;;;3546090;40;20230;-50
2021/05/08 11:27:26;;;;;;;6.60;6.40;;;23.90;65.20;;;;;;3542716;40;20486;-50
2021/05/08 11:29:55;;;;;;;7.33;6.93;;;23.90;65.30;;;;;;3548611;40;20505;-51
2021/05/08 11:32:21;;;;;;;7.33;6.93;;;23.90;65.30;;;;;;3552375;40;20592;-51
2021/05/08 11:34:54;;;;;;;6.80;6.50;;;23.90;65.40;;;;;;3551363;40;20746;-53
2021/05/08 11:37:22;;;;;;;7.80;7.30;;;23.90;65.40;;;;;;3553762;40;20576;-53
2021/05/08 11:39:50;;;;;;;7.60;7.23;;;23.90;65.50;;;;;;3547216;40;20498;-52
2021/05/08 11:42:19;;;;;;;8.00;7.13;;;23.90;65.50;;;;;;3543429;40;20494;-52
2021/05/08 11:44:53;;;;;;;7.45;6.88;;;23.90;65.50;;;;;;3544259;40;20488;-50
2021/05/08 11:47:28;;;;;;;7.30;6.90;;;23.90;65.60;;;;;;3544034;40;20237;-50
2021/05/08 11:49:58;;;;;;;7.63;7.20;;;23.90;65.60;;;;;;3542083;40;20515;-51
2021/05/08 11:52:37;;;;;;;7.80;7.27;;;23.90;65.60;;;;;;3542404;40;20486;-51
2021/05/08 11:55:06;;;;;;;7.85;7.28;;;23.80;65.60;;;;;;3548575;40;20496;-53
2021/05/08 11:57:35;;;;;;;7.50;7.07;;;23.90;65.80;;;;;;3556292;40;20267;-51
2021/05/08 12:00:15;;;;;;;7.17;6.77;;;23.90;65.80;;;;;;3560880;40;20487;-52
2021/05/08 12:02:42;;;;;;;7.03;6.63;;;23.90;65.80;;;;;;3561298;40;20748;-50
2021/05/08 12:05:11;;;;;;;6.90;6.60;;;23.60;53.80;;;;;;3554667;40;20466;-50
2021/05/08 12:07:43;;;;;;;6.67;6.40;;;23.20;50.80;;;;;;3558767;40;20507;-49
2021/05/08 12:10:16;;;;;;;7.30;6.90;;;23.00;50.10;;;;;;3552046;40;20512;-49
2021/05/08 12:12:52;;;;;;;6.93;6.63;;;22.80;50.60;;;;;;3555873;40;20506;-50
2021/05/08 12:15:26;;;;;;;7.30;7.00;;;22.70;50.60;;;;;;3561770;40;20506;-49
2021/05/08 12:17:55;;;;;;;7.17;6.87;;;22.50;50.20;;;;;;3559867;40;20487;-49
2021/05/08 12:20:26;;;;;;;6.70;6.40;;;22.40;49.80;;;;;;3561615;40;20488;-52
2021/05/08 12:23:00;;;;;;;6.90;6.60;;;22.40;51.00;;;;;;3562501;40;20485;-51
2021/05/08 12:25:28;;;;;;;7.53;7.23;;;22.50;52.70;;;;;;3561984;40;20562;-50
2021/05/08 12:28:15;;;;;;;7.87;7.37;;;22.70;55.00;;;;;;3554347;40;20482;-49
2021/05/08 12:30:52;;;;;;;7.47;6.90;;;22.90;56.20;;;;;;3552216;40;21123;-52
2021/05/08 12:33:21;;;;;;;7.03;6.72;;;23.10;57.30;;;;;;3562746;40;20539;-49
2021/05/08 12:35:50;;;;;;;8.73;8.33;;;23.10;57.80;;;;;;3562577;40;20329;-52
2021/05/08 12:38:27;;;;;;;8.87;8.47;;;23.20;58.30;;;;;;3557001;40;20493;-53
2021/05/08 12:40:54;;;;;;;8.10;7.80;;;23.30;58.90;;;;;;3556037;40;20478;-50
2021/05/08 12:43:24;;;;;;;9.83;8.93;;;23.30;58.80;;;;;;3544424;40;20486;-50
2021/05/08 12:46:04;;;;;;;8.63;8.23;;;23.30;59.00;;;;;;3561441;40;20484;-49
2021/05/08 12:48:33;;;;;;;8.17;7.80;;;23.40;59.30;;;;;;3563836;40;20491;-50
2021/05/08 12:51:01;;;;;;;8.90;8.40;;;23.40;59.40;;;;;;3553109;40;20521;-51
2021/05/08 12:53:28;;;;;;;8.80;8.33;;;23.40;59.60;;;;;;3552620;40;20492;-49
2021/05/08 12:56:00;;;;;;;8.57;8.27;;;23.50;59.90;;;;;;3561019;40;20493;-49